Wormleysburg, Pennsylvania
Current Conditions -  °F | °C
As of 8:16 PM on Monday 26 Jan 2015 (Local Time) from KCXY Reporting Station
Light Snow Light Snow  
Wind Chill: 21°   Ceiling: 2500
Heat Index: 26°   Visibility: 4mi
Dew Point: 21°   Wind: 5mph
Humidity: 81%   Direction: 350°N
Pressure: 29.8"   Gusts: NA
Location:  40.2478°N, 76.9006°W
Report Text: KCXY 270116Z 35004KT 4SM -SN SCT015 OVC025 M03/M06 A2980 RMK AO2 P0000 T10331061
Loading
Personal Weather Stations






























Interactive Weather Map New forecast layout! Learn more

10-Day Weather Forecast

Advertisements
Track Severe Weather on mobile